createdAt,value
2018-08-27T00:02:25.618Z,67.79
2018-08-27T00:05:28.873Z,68.92
2018-08-27T00:08:32.312Z,67.35
2018-08-27T00:11:35.906Z,68.92
2018-08-27T00:14:39.536Z,70.60
2018-08-27T00:17:43.010Z,69.83
2018-08-27T00:20:46.856Z,69.99
2018-08-27T00:23:50.331Z,69.24
2018-08-27T00:26:54.009Z,74.01
2018-08-27T00:29:57.337Z,69.39
2018-08-27T00:33:00.990Z,68.21
2018-08-27T00:36:04.849Z,68.14
2018-08-27T00:39:10.960Z,70.79
2018-08-27T00:42:14.411Z,68.47
2018-08-27T00:45:17.576Z,66.72
2018-08-27T00:48:20.969Z,67.72
2018-08-27T00:51:24.497Z,70.62
2018-08-27T00:54:28.302Z,67.93
2018-08-27T00:57:31.810Z,68.42
2018-08-27T01:00:35.134Z,63.87
2018-08-27T01:03:38.664Z,63.53
2018-08-27T01:06:41.941Z,63.95
2018-08-27T01:09:45.065Z,62.29
2018-08-27T01:12:48.282Z,64.40
2018-08-27T01:15:51.434Z,62.24
2018-08-27T01:18:54.657Z,61.45
2018-08-27T01:21:57.765Z,62.09
2018-08-27T01:25:00.877Z,63.99
2018-08-27T01:28:03.988Z,61.37
2018-08-27T01:31:07.060Z,62.24
2018-08-27T01:34:10.123Z,61.07
2018-08-27T01:37:13.214Z,61.89
2018-08-27T01:40:16.379Z,61.35
2018-08-27T01:43:19.514Z,61.92
2018-08-27T01:46:22.671Z,63.22
2018-08-27T01:49:25.849Z,62.15
2018-08-27T01:52:28.981Z,61.46
2018-08-27T01:55:32.011Z,62.52
2018-08-27T01:58:35.113Z,62.38
2018-08-27T02:01:38.218Z,62.01
2018-08-27T02:04:41.353Z,62.98
2018-08-27T02:07:44.504Z,62.48
2018-08-27T02:10:47.571Z,62.31
2018-08-27T02:13:50.615Z,64.03
2018-08-27T02:16:53.731Z,64.98
2018-08-27T02:19:56.864Z,65.29
2018-08-27T02:22:59.995Z,65.98
2018-08-27T02:26:03.113Z,65.96
2018-08-27T02:29:06.542Z,66.72
2018-08-27T02:32:09.627Z,67.42
2018-08-27T02:35:12.811Z,67.79
2018-08-27T02:38:15.859Z,68.04
2018-08-27T02:41:19.009Z,68.68
2018-08-27T02:44:22.097Z,69.92
2018-08-27T02:47:25.258Z,71.86
2018-08-27T02:50:28.294Z,74.10
2018-08-27T02:53:31.353Z,74.49
2018-08-27T02:56:34.547Z,75.61
2018-08-27T02:59:37.654Z,75.60
2018-08-27T03:02:40.733Z,77.29
2018-08-27T03:05:43.812Z,78.08
2018-08-27T03:08:47.572Z,78.19
2018-08-27T03:11:50.673Z,78.86
2018-08-27T03:14:53.759Z,78.70
2018-08-27T03:17:56.875Z,78.02
2018-08-27T03:21:00.040Z,77.82
2018-08-27T03:24:03.090Z,76.57
2018-08-27T03:27:06.219Z,77.04
2018-08-27T03:30:09.375Z,76.78
2018-08-27T03:33:12.436Z,76.67
2018-08-27T03:36:15.517Z,76.80
2018-08-27T03:39:18.508Z,76.75
2018-08-27T03:42:21.532Z,75.96
2018-08-27T03:45:24.621Z,76.79
2018-08-27T03:48:27.797Z,75.57
2018-08-27T03:51:30.911Z,76.20
2018-08-27T03:54:33.997Z,76.67
2018-08-27T03:57:37.186Z,77.59
2018-08-27T04:00:40.210Z,78.25
2018-08-27T04:03:43.298Z,80.49
2018-08-27T04:06:53.054Z,81.46
2018-08-27T04:09:56.247Z,81.57
2018-08-27T04:12:59.426Z,81.32
2018-08-27T04:16:02.503Z,81.45
2018-08-27T04:19:05.700Z,83.51
2018-08-27T04:22:08.837Z,84.43
2018-08-27T04:25:11.948Z,84.62
2018-08-27T04:28:15.022Z,84.43
2018-08-27T04:31:18.139Z,84.15
2018-08-27T04:34:21.298Z,84.65
2018-08-27T04:37:24.442Z,83.75
2018-08-27T04:40:27.525Z,84.24
2018-08-27T04:43:30.681Z,84.74
2018-08-27T04:46:34.053Z,84.85
2018-08-27T04:49:40.184Z,85.15
2018-08-27T04:52:43.273Z,84.11
2018-08-27T04:55:46.335Z,84.38
2018-08-27T04:58:49.780Z,84.29
2018-08-27T05:01:52.989Z,84.20
2018-08-27T05:04:56.091Z,85.21
2018-08-27T05:07:59.246Z,85.09
2018-08-27T05:11:02.493Z,85.51
2018-08-27T05:14:06.201Z,85.15
2018-08-27T05:17:09.365Z,85.77
2018-08-27T05:20:12.623Z,86.37
2018-08-27T05:23:15.887Z,86.64
2018-08-27T05:26:19.127Z,87.37
2018-08-27T05:29:22.434Z,87.52
2018-08-27T05:32:25.701Z,87.44
2018-08-27T05:35:30.145Z,87.94
2018-08-27T05:38:34.053Z,88.20
2018-08-27T05:41:37.121Z,88.87
2018-08-27T05:44:40.199Z,89.09
2018-08-27T05:47:43.373Z,90.09
2018-08-27T05:50:46.387Z,89.48
2018-08-27T05:53:49.506Z,89.32
2018-08-27T05:56:52.604Z,89.11
2018-08-27T06:00:02.479Z,89.97
2018-08-27T06:03:05.576Z,90.64
2018-08-27T06:06:08.703Z,90.21
2018-08-27T06:09:11.849Z,90.55
2018-08-27T06:13:39.496Z,91.03
2018-08-27T06:16:42.693Z,91.67
2018-08-27T06:19:45.742Z,91.67
2018-08-27T06:22:49.049Z,92.04
2018-08-27T06:25:52.394Z,91.52
2018-08-27T06:28:55.580Z,91.54
2018-08-27T06:31:58.628Z,92.00
2018-08-27T06:35:01.869Z,91.29
2018-08-27T06:38:05.350Z,90.96
2018-08-27T06:41:08.435Z,91.54
2018-08-27T06:44:11.618Z,91.37
2018-08-27T06:47:14.775Z,91.25
2018-08-27T06:50:19.259Z,91.67
2018-08-27T06:53:22.354Z,91.84
2018-08-27T06:56:25.778Z,91.93
2018-08-27T06:59:29.353Z,92.62
2018-08-27T07:02:32.623Z,92.79
2018-08-27T07:05:36.289Z,92.46
2018-08-27T07:08:39.571Z,92.62
2018-08-27T07:11:42.715Z,92.89
2018-08-27T07:14:46.074Z,92.44
2018-08-27T07:17:49.139Z,93.25
2018-08-27T07:20:52.240Z,93.98
2018-08-27T07:23:55.301Z,93.87
2018-08-27T07:26:58.513Z,94.02
2018-08-27T07:30:01.612Z,94.38
2018-08-27T07:33:04.674Z,94.41
2018-08-27T07:36:07.832Z,94.52
2018-08-27T07:39:11.604Z,93.89
2018-08-27T07:42:14.641Z,94.60
2018-08-27T07:45:17.706Z,95.37
2018-08-27T07:48:20.840Z,95.08
2018-08-27T07:51:24.910Z,95.09
2018-08-27T07:54:28.049Z,95.46
2018-08-27T07:57:31.223Z,95.38
2018-08-27T08:00:34.408Z,95.23
2018-08-27T08:03:37.580Z,95.22
2018-08-27T08:06:40.744Z,94.95
2018-08-27T08:09:43.843Z,95.52
2018-08-27T08:12:48.448Z,96.18
2018-08-27T08:15:51.670Z,96.38
2018-08-27T08:18:54.774Z,95.93
2018-08-27T08:21:57.912Z,95.78
2018-08-27T08:25:01.084Z,95.83
2018-08-27T08:28:04.241Z,95.55
2018-08-27T08:31:08.461Z,95.32
2018-08-27T08:34:11.551Z,94.55
2018-08-27T08:37:14.667Z,94.59
2018-08-27T08:40:17.744Z,94.64
2018-08-27T08:43:20.802Z,95.56
2018-08-27T08:46:23.866Z,96.00
2018-08-27T08:49:33.663Z,96.08
2018-08-27T08:52:36.826Z,95.99
2018-08-27T08:55:39.894Z,96.20
2018-08-27T08:58:43.091Z,95.98
2018-08-27T09:01:46.308Z,96.15
2018-08-27T09:04:49.270Z,95.14
2018-08-27T09:07:52.404Z,95.02
2018-08-27T09:10:55.517Z,95.10
2018-08-27T09:13:58.694Z,96.41
2018-08-27T09:17:01.863Z,97.63
2018-08-27T09:20:06.341Z,98.12
2018-08-27T09:23:09.549Z,99.12
2018-08-27T09:26:12.655Z,99.55
2018-08-27T09:29:15.685Z,100.00
2018-08-27T09:32:18.812Z,100.00
2018-08-27T09:35:22.008Z,100.00
2018-08-27T09:38:25.215Z,100.00
2018-08-27T09:41:28.443Z,100.00
2018-08-27T09:44:31.485Z,100.00
2018-08-27T09:47:34.643Z,100.00
2018-08-27T09:50:37.773Z,100.00
2018-08-27T09:53:40.896Z,99.75
2018-08-27T09:56:43.982Z,98.71
2018-08-27T09:59:47.108Z,97.97
2018-08-27T10:02:50.186Z,98.80
2018-08-27T10:05:53.261Z,98.29
2018-08-27T10:08:56.417Z,98.17
2018-08-27T10:11:59.520Z,97.98
2018-08-27T10:15:09.191Z,98.50
2018-08-27T10:18:12.261Z,98.36
2018-08-27T10:21:15.403Z,98.97
2018-08-27T10:24:18.584Z,98.68
2018-08-27T10:27:21.761Z,97.93
2018-08-27T10:30:24.860Z,97.25
2018-08-27T10:33:28.012Z,97.14
2018-08-27T10:36:31.231Z,97.18
2018-08-27T10:39:34.353Z,96.78
2018-08-27T10:42:37.486Z,96.12
2018-08-27T10:45:40.581Z,95.72
2018-08-27T10:48:43.818Z,95.73
2018-08-27T10:51:46.895Z,96.18
2018-08-27T10:54:49.967Z,96.80
2018-08-27T10:57:53.102Z,96.26
2018-08-27T11:00:56.223Z,96.21
2018-08-27T11:04:00.253Z,96.50
2018-08-27T11:07:03.466Z,96.68
2018-08-27T11:10:06.634Z,96.77
2018-08-27T11:13:09.736Z,97.25
2018-08-27T11:16:12.970Z,97.86
2018-08-27T11:19:15.936Z,99.42
2018-08-27T11:22:19.030Z,100.00
2018-08-27T11:25:22.229Z,96.71
2018-08-27T11:28:25.430Z,94.42
2018-08-27T11:31:28.613Z,92.60
2018-08-27T11:34:31.706Z,90.17
2018-08-27T11:37:34.970Z,89.42
2018-08-27T11:40:38.243Z,87.92
2018-08-27T11:43:41.590Z,86.36
2018-08-27T11:46:44.881Z,85.50
2018-08-27T11:49:48.129Z,85.08
2018-08-27T11:52:51.286Z,80.39
2018-08-27T11:55:54.443Z,80.13
2018-08-27T11:58:57.802Z,76.78
2018-08-27T12:02:01.188Z,74.71
2018-08-27T12:05:05.581Z,74.68
2018-08-27T12:08:09.012Z,73.54
2018-08-27T12:11:12.122Z,72.76
2018-08-27T12:14:15.256Z,69.32
2018-08-27T12:17:18.431Z,68.78
2018-08-27T12:20:21.770Z,64.36
2018-08-27T12:23:25.089Z,63.42
2018-08-27T12:26:28.246Z,60.45
2018-08-27T12:29:31.347Z,58.80
2018-08-27T12:32:34.485Z,58.49
2018-08-27T12:35:37.546Z,58.26
2018-08-27T12:38:40.885Z,56.45
2018-08-27T12:41:43.952Z,57.44
2018-08-27T12:44:47.078Z,58.14
2018-08-27T12:47:50.189Z,57.78
2018-08-27T12:50:53.371Z,57.97
2018-08-27T12:53:56.416Z,58.56
2018-08-27T12:56:59.483Z,55.93
2018-08-27T13:00:02.659Z,58.03
2018-08-27T13:03:05.727Z,58.90
2018-08-27T13:06:08.862Z,60.45
2018-08-27T13:09:12.029Z,60.61
2018-08-27T13:12:15.088Z,58.72
2018-08-27T13:15:18.166Z,60.17
2018-08-27T13:18:21.309Z,62.04
2018-08-27T13:21:25.671Z,61.34
2018-08-27T13:24:29.077Z,58.94
2018-08-27T13:27:32.972Z,60.05
2018-08-27T13:30:36.277Z,58.26
2018-08-27T13:33:39.149Z,57.08
2018-08-27T13:36:42.313Z,56.66
2018-08-27T13:39:45.534Z,56.18
2018-08-27T13:42:48.599Z,53.93
2018-08-27T13:45:51.665Z,53.80
2018-08-27T13:48:54.793Z,54.62
2018-08-27T13:52:03.846Z,55.88
2018-08-27T13:55:06.947Z,54.93
2018-08-27T13:58:09.960Z,56.08
2018-08-27T14:01:12.955Z,54.97
2018-08-27T14:04:15.996Z,53.87
2018-08-27T14:07:19.070Z,54.59
2018-08-27T14:10:22.082Z,55.02
2018-08-27T14:13:25.160Z,52.11
2018-08-27T14:16:28.243Z,53.51
2018-08-27T14:19:31.466Z,51.94
2018-08-27T14:22:37.362Z,51.89
2018-08-27T14:25:40.540Z,52.41
2018-08-27T14:28:43.679Z,51.91
2018-08-27T14:31:46.944Z,52.58
2018-08-27T14:34:50.000Z,52.24
2018-08-27T14:37:53.111Z,50.92
2018-08-27T14:40:56.252Z,51.34
2018-08-27T14:43:59.386Z,50.19
2018-08-27T14:47:02.698Z,51.22
2018-08-27T14:50:06.289Z,51.86
2018-08-27T14:53:16.018Z,52.39
2018-08-27T14:59:21.672Z,52.30
2018-08-27T15:02:24.792Z,52.87
2018-08-27T15:05:27.914Z,52.40
2018-08-27T15:08:31.061Z,53.69
2018-08-27T15:11:34.187Z,53.24
2018-08-27T15:14:37.414Z,52.39
2018-08-27T15:17:40.593Z,52.94
2018-08-27T15:20:43.761Z,53.93
2018-08-27T15:23:46.921Z,53.24
2018-08-27T15:26:49.964Z,53.97
2018-08-27T15:29:53.019Z,53.22
2018-08-27T15:32:56.216Z,54.67
2018-08-27T15:35:59.237Z,54.64
2018-08-27T15:39:02.726Z,53.87
2018-08-27T15:42:05.758Z,52.91
2018-08-27T15:45:08.875Z,53.86
2018-08-27T15:48:11.934Z,53.72
2018-08-27T15:51:15.032Z,54.42
2018-08-27T15:54:18.087Z,54.27
2018-08-27T15:57:21.196Z,55.06
2018-08-27T16:00:24.211Z,55.29
2018-08-27T16:03:27.285Z,55.97
2018-08-27T16:06:33.349Z,55.10
2018-08-27T16:09:36.420Z,56.18
2018-08-27T16:12:39.824Z,56.73
2018-08-27T16:15:43.285Z,55.95
2018-08-27T16:18:46.573Z,57.08
2018-08-27T16:21:50.275Z,57.77
2018-08-27T16:24:53.414Z,57.17
2018-08-27T16:27:56.581Z,57.23
2018-08-27T16:30:59.646Z,57.20
2018-08-27T16:34:02.746Z,57.83
2018-08-27T16:37:05.862Z,58.16
2018-08-27T16:40:08.955Z,58.45
2018-08-27T16:43:12.094Z,58.21
2018-08-27T16:46:15.319Z,58.54
2018-08-27T16:49:18.347Z,57.57
2018-08-27T16:52:21.580Z,58.74
2018-08-27T16:55:24.589Z,59.02
2018-08-27T16:58:27.661Z,58.53
2018-08-27T17:01:30.917Z,59.14
2018-08-27T17:04:34.023Z,59.55
2018-08-27T17:07:37.164Z,60.41
2018-08-27T17:10:40.216Z,60.10
2018-08-27T17:13:43.249Z,60.01
2018-08-27T17:16:46.361Z,60.71
2018-08-27T17:19:49.446Z,60.62
2018-08-27T17:22:52.480Z,60.54
2018-08-27T17:25:55.551Z,61.29
2018-08-27T17:28:59.725Z,60.70
2018-08-27T17:32:03.451Z,61.08
2018-08-27T17:35:07.211Z,61.87
2018-08-27T17:38:10.332Z,61.59
2018-08-27T17:41:13.593Z,61.81
2018-08-27T17:44:16.847Z,62.73
2018-08-27T17:47:20.186Z,63.12
2018-08-27T17:50:23.535Z,63.09
2018-08-27T17:53:26.765Z,62.98
2018-08-27T17:56:29.852Z,63.49
2018-08-27T17:59:33.025Z,64.01
2018-08-27T18:02:36.268Z,64.67
2018-08-27T18:05:39.546Z,64.37
2018-08-27T18:08:42.663Z,64.01
2018-08-27T18:11:45.817Z,64.61
2018-08-27T18:14:49.163Z,65.03
2018-08-27T18:17:52.319Z,64.50
2018-08-27T18:20:55.433Z,64.15
2018-08-27T18:23:58.641Z,64.21
2018-08-27T18:27:01.804Z,64.26
2018-08-27T18:30:05.377Z,64.44
2018-08-27T18:33:08.529Z,64.68
2018-08-27T18:36:11.870Z,64.55
2018-08-27T18:39:15.221Z,64.34
2018-08-27T18:42:18.387Z,65.85
2018-08-27T18:45:21.606Z,65.76
2018-08-27T18:48:25.006Z,65.13
2018-08-27T18:51:28.295Z,64.90
2018-08-27T18:54:31.533Z,64.57
2018-08-27T18:57:44.101Z,65.23
2018-08-27T19:00:47.243Z,63.82
2018-08-27T19:03:50.428Z,63.83
2018-08-27T19:06:53.574Z,64.41
2018-08-27T19:09:56.794Z,64.27
2018-08-27T19:12:59.928Z,64.64
2018-08-27T19:16:03.109Z,64.08
2018-08-27T19:19:06.354Z,63.77
2018-08-27T19:22:09.660Z,63.90
2018-08-27T19:25:12.717Z,63.92
2018-08-27T19:28:16.331Z,63.81
2018-08-27T19:31:20.038Z,64.76
2018-08-27T19:34:23.434Z,64.33
2018-08-27T19:37:26.821Z,64.00
2018-08-27T19:40:29.916Z,63.85
2018-08-27T19:43:33.237Z,63.95
2018-08-27T19:46:36.722Z,64.05
2018-08-27T19:49:40.378Z,63.92
2018-08-27T19:52:43.780Z,64.44
2018-08-27T19:55:47.202Z,65.35
2018-08-27T19:58:50.637Z,63.50
2018-08-27T20:01:55.294Z,63.92
2018-08-27T20:04:58.581Z,64.58
2018-08-27T20:08:02.207Z,64.13
2018-08-27T20:11:05.734Z,64.04
2018-08-27T20:14:10.389Z,64.13
2018-08-27T20:17:13.843Z,63.60
2018-08-27T20:20:17.341Z,63.39
2018-08-27T20:23:20.534Z,63.96
2018-08-27T20:26:30.607Z,63.88
2018-08-27T20:29:34.289Z,63.42
2018-08-27T20:32:37.846Z,63.09
2018-08-27T20:35:40.988Z,63.37
2018-08-27T20:38:44.549Z,63.10
2018-08-27T20:41:48.129Z,63.97
2018-08-27T20:44:53.192Z,63.61
2018-08-27T20:47:56.780Z,63.54
2018-08-27T20:51:00.516Z,63.46
2018-08-27T20:54:03.789Z,63.67
2018-08-27T20:57:07.270Z,63.80
2018-08-27T21:00:10.620Z,64.40
2018-08-27T21:03:14.021Z,63.47
2018-08-27T21:06:17.319Z,63.80
2018-08-27T21:09:20.670Z,63.85
2018-08-27T21:12:24.574Z,64.37
2018-08-27T21:15:27.991Z,64.47
2018-08-27T21:18:31.509Z,64.08
2018-08-27T21:21:35.120Z,64.55
2018-08-27T21:24:38.584Z,64.27
2018-08-27T21:27:42.805Z,64.26
2018-08-27T21:30:45.984Z,65.06
2018-08-27T21:33:49.146Z,64.96
2018-08-27T21:36:52.265Z,64.97
2018-08-27T21:39:55.549Z,64.94
2018-08-27T21:42:58.811Z,65.55
2018-08-27T21:46:02.118Z,64.59
2018-08-27T21:49:05.302Z,65.34
2018-08-27T21:52:08.836Z,65.78
2018-08-27T21:55:11.965Z,66.12
2018-08-27T21:58:15.090Z,66.21
2018-08-27T22:01:19.326Z,66.10
2018-08-27T22:14:41.225Z,67.13
2018-08-27T22:17:44.290Z,67.91
2018-08-27T22:20:47.403Z,67.22
2018-08-27T22:23:50.495Z,68.30
2018-08-27T22:26:53.582Z,67.37
2018-08-27T22:29:56.640Z,68.59
2018-08-27T22:32:59.688Z,68.46
2018-08-27T22:36:02.752Z,68.60
2018-08-27T22:39:06.066Z,69.66
2018-08-27T22:42:09.127Z,69.74
2018-08-27T22:45:12.187Z,69.75
2018-08-27T22:48:15.249Z,69.85
2018-08-27T22:51:18.378Z,69.90
2018-08-27T22:54:21.414Z,69.87
2018-08-27T22:57:24.428Z,69.19
2018-08-27T23:00:27.508Z,69.78
2018-08-27T23:03:36.232Z,70.03
2018-08-27T23:06:39.302Z,70.26
2018-08-27T23:09:42.361Z,70.74
2018-08-27T23:12:45.402Z,70.91
2018-08-27T23:15:48.510Z,70.63
2018-08-27T23:18:51.613Z,70.42
2018-08-27T23:21:54.722Z,70.60
2018-08-27T23:24:57.729Z,70.34
2018-08-27T23:28:00.775Z,69.99
2018-08-27T23:31:03.853Z,70.31
2018-08-27T23:34:06.978Z,70.60
2018-08-27T23:37:10.059Z,70.48
2018-08-27T23:40:13.183Z,70.49
2018-08-27T23:43:16.251Z,70.29
2018-08-27T23:46:19.293Z,69.86
2018-08-27T23:49:22.887Z,69.99
2018-08-27T23:52:26.503Z,69.60
2018-08-27T23:55:29.630Z,70.79
2018-08-27T23:58:32.702Z,69.91
